createdAt,value
2019-01-13T00:01:02.974Z,0
2019-01-13T00:02:15.166Z,0
2019-01-13T00:03:27.362Z,0
2019-01-13T00:05:51.759Z,0
2019-01-13T00:07:03.951Z,0
2019-01-13T00:08:16.277Z,0
2019-01-13T00:09:28.335Z,0
2019-01-13T00:11:52.812Z,0
2019-01-13T00:13:04.926Z,0
2019-01-13T00:14:17.119Z,0
2019-01-13T00:15:29.418Z,0
2019-01-13T00:16:41.507Z,0
2019-01-13T00:17:53.786Z,0
2019-01-13T00:19:05.914Z,0
2019-01-13T00:20:18.098Z,0
2019-01-13T00:21:30.293Z,0
2019-01-13T00:23:54.760Z,0
2019-01-13T00:25:06.888Z,0
2019-01-13T00:26:19.167Z,0
2019-01-13T00:27:31.356Z,0
2019-01-13T00:28:43.548Z,0
2019-01-13T00:29:55.785Z,0
2019-01-13T00:31:07.856Z,0
2019-01-13T00:32:20.052Z,0
2019-01-13T00:33:32.294Z,0
2019-01-13T00:35:56.724Z,0
2019-01-13T00:37:08.835Z,0
2019-01-13T00:38:21.034Z,0
2019-01-13T00:39:33.316Z,0
2019-01-13T00:40:45.421Z,0
2019-01-13T00:41:57.697Z,0
2019-01-13T00:43:09.911Z,0
2019-01-13T00:44:22.035Z,0
2019-01-13T00:45:34.274Z,0
2019-01-13T00:46:46.470Z,0
2019-01-13T00:47:58.611Z,0
2019-01-13T00:49:10.792Z,0
2019-01-13T00:50:22.986Z,0
2019-01-13T00:51:35.183Z,0
2019-01-13T00:52:47.415Z,0
2019-01-13T00:53:59.672Z,0
2019-01-13T00:55:11.844Z,0
2019-01-13T00:56:24.040Z,0
2019-01-13T00:57:36.188Z,0
2019-01-13T00:58:48.419Z,0
2019-01-13T01:00:00.553Z,0
2019-01-13T01:01:12.763Z,0
2019-01-13T01:02:24.995Z,0
2019-01-13T01:03:37.144Z,0
2019-01-13T01:04:49.408Z,0
2019-01-13T01:06:01.601Z,0
2019-01-13T01:07:13.721Z,0
2019-01-13T01:08:26.026Z,0
2019-01-13T01:09:38.191Z,0
2019-01-13T01:10:50.399Z,0
2019-01-13T01:12:02.594Z,0
2019-01-13T01:13:14.697Z,0
2019-01-13T01:14:26.890Z,0
2019-01-13T01:15:39.192Z,0
2019-01-13T01:16:51.404Z,0
2019-01-13T01:18:03.472Z,0
2019-01-13T01:19:15.671Z,0
2019-01-13T01:20:27.933Z,0
2019-01-13T01:21:40.173Z,0
2019-01-13T01:24:04.452Z,0
2019-01-13T01:25:16.737Z,0
2019-01-13T01:26:28.846Z,0
2019-01-13T01:27:41.134Z,0
2019-01-13T01:28:53.315Z,0
2019-01-13T01:30:05.495Z,0
2019-01-13T01:32:29.937Z,0
2019-01-13T01:33:42.045Z,0
2019-01-13T01:34:54.243Z,0
2019-01-13T01:36:06.492Z,0
2019-01-13T01:37:18.693Z,0
2019-01-13T01:38:30.867Z,0
2019-01-13T01:39:43.079Z,0
2019-01-13T01:40:55.323Z,0
2019-01-13T01:42:07.486Z,0
2019-01-13T01:43:19.660Z,0
2019-01-13T01:44:31.862Z,0
2019-01-13T01:45:43.970Z,0
2019-01-13T01:48:08.442Z,0
2019-01-13T01:49:20.560Z,0
2019-01-13T01:50:32.848Z,0
2019-01-13T01:51:45.021Z,0
2019-01-13T01:52:57.145Z,0
2019-01-13T01:54:09.453Z,0
2019-01-13T01:55:21.617Z,0
2019-01-13T01:56:33.880Z,0
2019-01-13T01:57:45.935Z,0
2019-01-13T02:01:22.670Z,0
2019-01-13T02:02:34.789Z,0
2019-01-13T02:03:47.043Z,0
2019-01-13T02:04:59.296Z,0
2019-01-13T02:06:11.389Z,0
2019-01-13T02:07:23.616Z,0
2019-01-13T02:08:35.682Z,0
2019-01-13T02:09:47.879Z,0
2019-01-13T02:11:00.155Z,0
2019-01-13T02:12:12.280Z,0
2019-01-13T02:13:24.458Z,0
2019-01-13T02:14:36.732Z,0
2019-01-13T02:15:48.933Z,0
2019-01-13T02:17:01.131Z,0
2019-01-13T02:18:13.245Z,0
2019-01-13T02:19:25.445Z,0
2019-01-13T02:20:37.645Z,0
2019-01-13T02:21:49.906Z,0
2019-01-13T02:24:14.226Z,0
2019-01-13T02:25:26.430Z,0
2019-01-13T02:26:38.647Z,0
2019-01-13T02:27:50.896Z,0
2019-01-13T02:29:03.082Z,0
2019-01-13T02:30:15.342Z,0
2019-01-13T02:31:27.421Z,0
2019-01-13T02:32:39.617Z,0
2019-01-13T02:33:51.821Z,0
2019-01-13T02:36:16.224Z,0
2019-01-13T02:37:28.373Z,0
2019-01-13T02:38:40.660Z,0
2019-01-13T02:39:52.787Z,0
2019-01-13T02:41:05.089Z,0
2019-01-13T02:42:17.162Z,0
2019-01-13T02:43:29.453Z,0
2019-01-13T02:44:41.574Z,0
2019-01-13T02:45:53.814Z,0
2019-01-13T02:47:05.934Z,0
2019-01-13T02:48:18.124Z,0
2019-01-13T02:49:30.334Z,0
2019-01-13T02:50:42.587Z,0
2019-01-13T02:51:54.822Z,0
2019-01-13T02:53:06.991Z,0
2019-01-13T02:54:19.099Z,0
2019-01-13T02:55:31.432Z,0
2019-01-13T02:56:43.530Z,0
2019-01-13T02:57:55.750Z,0
2019-01-13T03:00:20.180Z,0
2019-01-13T03:01:32.320Z,0
2019-01-13T03:02:44.528Z,0
2019-01-13T03:03:56.703Z,0
2019-01-13T03:06:21.058Z,0
2019-01-13T03:07:33.244Z,0
2019-01-13T03:08:45.435Z,0
2019-01-13T03:09:57.693Z,0
2019-01-13T03:12:22.166Z,0
2019-01-13T03:13:34.290Z,0
2019-01-13T03:14:46.490Z,0
2019-01-13T03:15:58.664Z,0
2019-01-13T03:17:10.774Z,0
2019-01-13T03:18:22.975Z,0
2019-01-13T03:19:35.259Z,0
2019-01-13T03:20:47.412Z,0
2019-01-13T03:21:59.765Z,0
2019-01-13T03:24:24.031Z,0
2019-01-13T03:25:36.147Z,0
2019-01-13T03:26:50.492Z,0
2019-01-13T03:28:00.605Z,0
2019-01-13T03:29:12.722Z,0
2019-01-13T03:30:24.948Z,0
2019-01-13T03:31:37.200Z,0
2019-01-13T03:32:49.392Z,0
2019-01-13T03:34:01.519Z,0
2019-01-13T03:35:13.767Z,0
2019-01-13T03:36:25.955Z,0
2019-01-13T03:37:38.082Z,0
2019-01-13T03:38:50.349Z,0
2019-01-13T03:40:02.695Z,0
2019-01-13T03:41:14.754Z,0
2019-01-13T03:42:26.859Z,0
2019-01-13T03:43:39.050Z,0
2019-01-13T03:44:51.306Z,0
2019-01-13T03:46:03.429Z,0
2019-01-13T03:48:27.817Z,0
2019-01-13T03:49:40.033Z,0
2019-01-13T03:50:52.221Z,0
2019-01-13T03:52:04.397Z,0
2019-01-13T03:53:16.705Z,0
2019-01-13T03:54:28.798Z,0
2019-01-13T03:55:41.012Z,0
2019-01-13T03:56:53.275Z,0
2019-01-13T03:58:05.369Z,0
2019-01-13T04:00:29.876Z,0
2019-01-13T04:01:42.025Z,0
2019-01-13T04:02:54.184Z,0
2019-01-13T04:04:06.331Z,0
2019-01-13T04:05:18.536Z,0
2019-01-13T04:06:30.932Z,0
2019-01-13T04:07:42.920Z,0
2019-01-13T04:08:55.211Z,0
2019-01-13T04:10:07.377Z,0
2019-01-13T04:12:31.764Z,0
2019-01-13T04:13:43.904Z,0
2019-01-13T04:14:56.097Z,0
2019-01-13T04:16:08.271Z,0
2019-01-13T04:17:20.465Z,0
2019-01-13T04:18:32.667Z,0
2019-01-13T04:19:44.923Z,0
2019-01-13T04:20:57.092Z,0
2019-01-13T04:22:09.325Z,0
2019-01-13T04:23:21.508Z,0
2019-01-13T04:24:33.632Z,0
2019-01-13T04:25:45.816Z,0
2019-01-13T04:26:58.089Z,0
2019-01-13T04:28:10.297Z,0
2019-01-13T04:29:22.480Z,0
2019-01-13T04:30:34.674Z,0
2019-01-13T04:31:46.804Z,0
2019-01-13T04:32:58.996Z,0
2019-01-13T04:34:11.183Z,0
2019-01-13T04:35:23.381Z,0
2019-01-13T04:36:35.576Z,0
2019-01-13T04:37:47.835Z,0
2019-01-13T04:39:00.072Z,0
2019-01-13T04:40:12.173Z,0
2019-01-13T04:41:24.434Z,0
2019-01-13T04:42:36.675Z,0
2019-01-13T04:43:48.807Z,0
2019-01-13T04:45:01.008Z,0
2019-01-13T04:46:13.114Z,0
2019-01-13T04:48:37.596Z,0
2019-01-13T04:49:49.771Z,0
2019-01-13T04:51:01.972Z,0
2019-01-13T04:52:14.095Z,0
2019-01-13T04:53:26.388Z,0
2019-01-13T04:54:38.576Z,0
2019-01-13T04:55:50.687Z,0
2019-01-13T04:57:02.870Z,0
2019-01-13T04:58:15.085Z,0
2019-01-13T05:00:39.620Z,0
2019-01-13T05:01:51.730Z,0
2019-01-13T05:03:03.830Z,0
2019-01-13T05:04:16.022Z,0
2019-01-13T05:05:28.310Z,0
2019-01-13T05:06:40.517Z,0
2019-01-13T05:07:52.679Z,0
2019-01-13T05:09:04.815Z,0
2019-01-13T05:10:17.114Z,0
2019-01-13T05:12:41.426Z,0
2019-01-13T05:13:53.600Z,0
2019-01-13T05:15:05.841Z,0
2019-01-13T05:16:18.009Z,0
2019-01-13T05:17:30.161Z,0
2019-01-13T05:18:42.385Z,0
2019-01-13T05:19:54.573Z,0
2019-01-13T05:21:06.832Z,0
2019-01-13T05:22:18.939Z,0
2019-01-13T05:24:43.327Z,0
2019-01-13T05:25:55.583Z,0
2019-01-13T05:27:07.709Z,0
2019-01-13T05:28:19.996Z,0
2019-01-13T05:29:32.094Z,0
2019-01-13T05:30:44.352Z,0
2019-01-13T05:31:56.482Z,0
2019-01-13T05:33:08.673Z,0
2019-01-13T05:34:20.868Z,0
2019-01-13T05:36:45.330Z,0
2019-01-13T05:37:57.538Z,0
2019-01-13T05:39:09.736Z,0
2019-01-13T05:40:21.916Z,0
2019-01-13T05:41:34.032Z,0
2019-01-13T05:42:46.317Z,0
2019-01-13T05:43:58.429Z,0
2019-01-13T05:45:10.634Z,0
2019-01-13T05:46:22.923Z,0
2019-01-13T05:48:47.261Z,0
2019-01-13T05:49:59.486Z,0
2019-01-13T05:51:11.667Z,0
2019-01-13T05:52:23.869Z,0
2019-01-13T05:53:35.976Z,0
2019-01-13T05:54:48.161Z,0
2019-01-13T05:56:00.430Z,0
2019-01-13T05:57:12.557Z,0
2019-01-13T05:58:24.794Z,0
2019-01-13T05:59:36.940Z,0
2019-01-13T06:00:49.215Z,0
2019-01-13T06:02:01.387Z,0
2019-01-13T06:03:13.514Z,0
2019-01-13T06:04:25.719Z,0
2019-01-13T06:05:37.937Z,0
2019-01-13T06:06:50.109Z,0
2019-01-13T06:08:02.429Z,0
2019-01-13T06:09:14.490Z,0
2019-01-13T06:10:26.708Z,0
2019-01-13T06:12:51.161Z,0
2019-01-13T06:14:03.265Z,0
2019-01-13T06:15:15.463Z,0
2019-01-13T06:16:27.645Z,0
2019-01-13T06:17:39.938Z,0
2019-01-13T06:18:52.039Z,0
2019-01-13T06:20:04.245Z,0
2019-01-13T06:21:16.436Z,0
2019-01-13T06:22:28.712Z,0
2019-01-13T06:23:40.816Z,0
2019-01-13T06:24:55.825Z,0
2019-01-13T06:26:05.210Z,0
2019-01-13T06:28:29.618Z,0
2019-01-13T06:29:41.792Z,0
2019-01-13T06:30:55.273Z,0
2019-01-13T06:32:06.184Z,0
2019-01-13T06:33:18.434Z,0
2019-01-13T06:34:30.564Z,0
2019-01-13T06:36:55.024Z,0
2019-01-13T06:38:07.137Z,0
2019-01-13T06:39:19.329Z,0
2019-01-13T06:40:31.619Z,0
2019-01-13T06:41:43.822Z,0
2019-01-13T06:42:55.922Z,0
2019-01-13T06:44:08.106Z,0
2019-01-13T06:45:20.298Z,0
2019-01-13T06:46:32.559Z,0
2019-01-13T06:47:44.820Z,0
2019-01-13T06:48:56.938Z,0
2019-01-13T06:50:09.077Z,0
2019-01-13T06:51:21.358Z,0
2019-01-13T06:52:33.594Z,0
2019-01-13T06:53:45.651Z,0
2019-01-13T06:54:57.856Z,0
2019-01-13T06:56:10.154Z,0
2019-01-13T06:57:22.325Z,0
2019-01-13T06:58:34.562Z,0
2019-01-13T07:00:58.954Z,0
2019-01-13T07:02:11.227Z,0
2019-01-13T07:03:23.253Z,0
2019-01-13T07:04:35.478Z,0
2019-01-13T07:05:47.674Z,0
2019-01-13T07:06:59.893Z,0
2019-01-13T07:08:12.090Z,0
2019-01-13T07:09:24.177Z,0
2019-01-13T07:10:36.458Z,0
2019-01-13T07:13:00.776Z,4
2019-01-13T07:14:12.950Z,4
2019-01-13T07:15:25.149Z,4
2019-01-13T07:16:37.344Z,8
2019-01-13T07:17:49.535Z,8
2019-01-13T07:19:03.828Z,8
2019-01-13T07:20:13.993Z,8
2019-01-13T07:21:26.217Z,8
2019-01-13T07:22:38.314Z,8
2019-01-13T07:25:02.699Z,12
2019-01-13T07:26:14.967Z,20
2019-01-13T07:27:27.091Z,24
2019-01-13T07:28:39.284Z,24
2019-01-13T07:29:51.467Z,28
2019-01-13T07:31:03.768Z,32
2019-01-13T07:32:15.888Z,32
2019-01-13T07:33:28.065Z,32
2019-01-13T07:34:41.766Z,32
2019-01-13T07:37:04.646Z,28
2019-01-13T07:38:16.961Z,28
2019-01-13T07:39:29.094Z,36
2019-01-13T07:40:41.289Z,36
2019-01-13T07:41:53.409Z,32
2019-01-13T07:43:05.685Z,52
2019-01-13T07:44:17.821Z,52
2019-01-13T07:45:30.010Z,64
2019-01-13T07:46:42.262Z,60
2019-01-13T07:49:06.640Z,76
2019-01-13T07:50:18.894Z,80
2019-01-13T07:51:30.949Z,72
2019-01-13T07:52:43.257Z,84
2019-01-13T07:53:55.530Z,88
2019-01-13T07:55:07.586Z,124
2019-01-13T07:56:19.740Z,128
2019-01-13T07:57:31.930Z,144
2019-01-13T07:58:44.147Z,172
2019-01-13T08:01:08.516Z,236
2019-01-13T08:02:20.700Z,244
2019-01-13T08:03:32.983Z,264
2019-01-13T08:04:45.085Z,232
2019-01-13T08:05:57.366Z,272
2019-01-13T08:07:09.477Z,244
2019-01-13T08:08:21.669Z,272
2019-01-13T08:09:33.933Z,244
2019-01-13T08:10:46.223Z,228
2019-01-13T08:13:10.498Z,252
2019-01-13T08:14:22.646Z,300
2019-01-13T08:15:35.015Z,304
2019-01-13T08:16:47.232Z,348
2019-01-13T08:17:59.332Z,376
2019-01-13T08:19:11.487Z,372
2019-01-13T08:20:23.614Z,368
2019-01-13T08:21:35.826Z,356
2019-01-13T08:22:48.001Z,420
2019-01-13T08:25:12.537Z,340
2019-01-13T08:26:24.571Z,316
2019-01-13T08:27:37.112Z,292
2019-01-13T08:28:49.180Z,312
2019-01-13T08:30:01.215Z,316
2019-01-13T08:31:13.358Z,292
2019-01-13T08:32:25.715Z,316
2019-01-13T08:33:37.744Z,396
2019-01-13T08:34:49.930Z,328
2019-01-13T08:36:02.130Z,392
2019-01-13T08:37:14.322Z,488
2019-01-13T08:38:26.519Z,472
2019-01-13T08:39:38.816Z,648
2019-01-13T08:40:50.978Z,556
2019-01-13T08:42:03.102Z,552
2019-01-13T08:43:15.369Z,528
2019-01-13T08:44:27.603Z,420
2019-01-13T08:45:39.687Z,472
2019-01-13T08:46:51.869Z,564
2019-01-13T08:49:16.422Z,484
2019-01-13T08:50:29.218Z,432
2019-01-13T08:51:40.849Z,520
2019-01-13T08:52:55.310Z,560
2019-01-13T08:54:05.039Z,584
2019-01-13T08:55:17.351Z,580
2019-01-13T08:56:29.430Z,496
2019-01-13T08:57:41.722Z,524
2019-01-13T08:58:53.874Z,680
2019-01-13T09:01:18.281Z,640
2019-01-13T09:02:30.418Z,672
2019-01-13T09:03:42.594Z,584
2019-01-13T09:04:54.855Z,808
2019-01-13T09:06:06.985Z,740
2019-01-13T09:07:19.183Z,860
2019-01-13T09:08:31.400Z,936
2019-01-13T09:09:43.549Z,848
2019-01-13T09:10:55.764Z,868
2019-01-13T09:13:20.241Z,668
2019-01-13T09:14:32.368Z,708
2019-01-13T09:15:44.537Z,544
2019-01-13T09:16:56.725Z,796
2019-01-13T09:18:08.987Z,852
2019-01-13T09:19:21.187Z,724
2019-01-13T09:20:33.383Z,868
2019-01-13T09:21:45.584Z,716
2019-01-13T09:22:57.765Z,740
2019-01-13T09:25:22.163Z,836
2019-01-13T09:26:34.271Z,884
2019-01-13T09:28:58.659Z,936
2019-01-13T09:30:10.856Z,756
2019-01-13T09:31:23.130Z,740
2019-01-13T09:32:35.326Z,900
2019-01-13T09:33:47.481Z,920
2019-01-13T09:34:59.636Z,880
2019-01-13T09:37:24.084Z,792
2019-01-13T09:38:36.312Z,932
2019-01-13T09:39:50.514Z,1100
2019-01-13T09:41:00.708Z,1120
2019-01-13T09:42:12.786Z,928
2019-01-13T09:43:25.020Z,1108
2019-01-13T09:44:37.168Z,1156
2019-01-13T09:45:49.371Z,1200
2019-01-13T09:47:01.563Z,856
2019-01-13T09:49:26.024Z,1036
2019-01-13T09:50:38.228Z,1068
2019-01-13T09:51:50.537Z,864
2019-01-13T09:53:02.619Z,956
2019-01-13T09:54:14.802Z,832
2019-01-13T09:55:27.001Z,1016
2019-01-13T09:56:39.143Z,1096
2019-01-13T09:57:51.316Z,952
2019-01-13T09:59:03.585Z,964
2019-01-13T10:01:27.958Z,924
2019-01-13T10:02:40.175Z,1040
2019-01-13T10:03:52.281Z,856
2019-01-13T10:05:04.572Z,1336
2019-01-13T10:06:16.738Z,1136
2019-01-13T10:07:28.928Z,1332
2019-01-13T10:08:41.132Z,1204
2019-01-13T10:09:53.243Z,880
2019-01-13T10:11:05.506Z,1032
2019-01-13T10:12:17.630Z,1052
2019-01-13T10:13:29.907Z,1116
2019-01-13T10:14:42.133Z,1256
2019-01-13T10:15:54.208Z,1068
2019-01-13T10:17:06.478Z,1400
2019-01-13T10:18:18.824Z,1136
2019-01-13T10:19:30.938Z,1152
2019-01-13T10:20:42.992Z,1272
2019-01-13T10:21:55.187Z,1128
2019-01-13T10:23:07.378Z,880
2019-01-13T10:24:19.562Z,976
2019-01-13T10:25:31.766Z,1256
2019-01-13T10:26:44.039Z,1252
2019-01-13T10:27:56.234Z,1640
2019-01-13T10:29:08.352Z,1760
2019-01-13T10:30:20.772Z,2072
2019-01-13T10:31:32.798Z,2236
2019-01-13T10:32:44.930Z,2108
2019-01-13T10:33:57.129Z,2016
2019-01-13T10:35:09.321Z,1496
2019-01-13T10:37:33.793Z,1288
2019-01-13T10:38:48.653Z,1244
2019-01-13T10:39:58.264Z,1348
2019-01-13T10:41:10.367Z,1420
2019-01-13T10:42:22.478Z,1636
2019-01-13T10:43:34.690Z,1412
2019-01-13T10:44:46.864Z,1156
2019-01-13T10:45:59.051Z,1080
2019-01-13T10:47:11.325Z,1012
2019-01-13T10:48:23.524Z,1124
2019-01-13T10:49:35.648Z,1460
2019-01-13T10:50:47.906Z,1684
2019-01-13T10:52:00.117Z,1972
2019-01-13T10:53:12.301Z,1828
2019-01-13T10:54:24.505Z,1744
2019-01-13T10:55:36.679Z,1272
2019-01-13T10:56:48.871Z,1264
2019-01-13T10:58:00.995Z,1172
2019-01-13T10:59:13.271Z,1356
2019-01-13T11:01:37.671Z,1444
2019-01-13T11:02:49.834Z,1540
2019-01-13T11:04:02.053Z,1604
2019-01-13T11:05:14.241Z,1612
2019-01-13T11:06:26.437Z,1664
2019-01-13T11:07:38.630Z,1712
2019-01-13T11:08:50.848Z,1628
2019-01-13T11:10:02.998Z,1444
2019-01-13T11:11:15.119Z,1524
2019-01-13T11:13:39.511Z,1696
2019-01-13T11:14:51.812Z,1536
2019-01-13T11:17:16.149Z,1376
2019-01-13T11:18:28.367Z,1656
2019-01-13T11:19:40.528Z,1772
2019-01-13T11:20:52.830Z,2200
2019-01-13T11:22:08.337Z,2304
2019-01-13T11:23:17.754Z,2624
2019-01-13T11:24:29.260Z,3096
2019-01-13T11:25:41.544Z,2780
2019-01-13T11:26:53.728Z,2976
2019-01-13T11:28:05.833Z,2320
2019-01-13T11:29:18.095Z,2576
2019-01-13T11:30:30.346Z,3036
2019-01-13T11:31:42.457Z,2464
2019-01-13T11:32:54.687Z,2968
2019-01-13T11:34:06.913Z,3836
2019-01-13T11:35:19.012Z,2104
2019-01-13T11:37:43.395Z,2492
2019-01-13T11:38:55.578Z,2764
2019-01-13T11:40:07.853Z,2932
2019-01-13T11:41:19.972Z,3008
2019-01-13T11:42:32.170Z,2520
2019-01-13T11:43:44.434Z,1668
2019-01-13T11:44:56.631Z,1388
2019-01-13T11:46:08.744Z,1424
2019-01-13T11:47:20.935Z,1532
2019-01-13T11:49:45.538Z,1260
2019-01-13T11:50:57.550Z,1324
2019-01-13T11:52:09.787Z,1780
2019-01-13T11:53:21.915Z,2048
2019-01-13T11:54:34.109Z,2380
2019-01-13T11:55:46.319Z,1180
2019-01-13T11:56:58.563Z,1660
2019-01-13T11:58:10.693Z,1244
2019-01-13T11:59:22.866Z,1464
2019-01-13T12:00:35.169Z,1508
2019-01-13T12:01:47.335Z,1568
2019-01-13T12:02:59.950Z,1036
2019-01-13T12:04:11.645Z,1308
2019-01-13T12:05:23.926Z,1100
2019-01-13T12:06:36.117Z,868
2019-01-13T12:07:48.234Z,876
2019-01-13T12:09:00.433Z,1256
2019-01-13T12:10:12.744Z,1044
2019-01-13T12:11:24.811Z,1128
2019-01-13T12:13:49.202Z,1208
2019-01-13T12:15:01.524Z,1228
2019-01-13T12:16:13.614Z,1296
2019-01-13T12:17:25.778Z,1300
2019-01-13T12:18:37.989Z,1860
2019-01-13T12:19:50.177Z,1504
2019-01-13T12:21:02.498Z,1496
2019-01-13T12:22:14.603Z,1504
2019-01-13T12:23:26.756Z,1472
2019-01-13T12:25:51.285Z,2460
2019-01-13T12:27:03.353Z,2072
2019-01-13T12:28:15.654Z,2100
2019-01-13T12:29:27.727Z,2124
2019-01-13T12:30:40.038Z,2148
2019-01-13T12:31:52.241Z,1888
2019-01-13T12:33:04.374Z,1844
2019-01-13T12:34:16.555Z,1508
2019-01-13T12:35:28.775Z,1700
2019-01-13T12:37:53.164Z,2080
2019-01-13T12:39:05.287Z,1868
2019-01-13T12:40:17.612Z,1488
2019-01-13T12:41:29.672Z,1540
2019-01-13T12:43:54.143Z,1512
2019-01-13T12:45:06.327Z,1604
2019-01-13T12:46:18.449Z,1624
2019-01-13T12:47:30.732Z,2108
2019-01-13T12:49:55.118Z,2500
2019-01-13T12:51:07.307Z,2180
2019-01-13T12:52:19.432Z,1952
2019-01-13T12:53:31.709Z,1712
2019-01-13T12:54:43.816Z,1448
2019-01-13T12:55:56.105Z,1480
2019-01-13T12:57:08.242Z,1264
2019-01-13T12:58:20.524Z,1568
2019-01-13T12:59:32.609Z,1716
2019-01-13T13:01:56.991Z,1176
2019-01-13T13:03:09.258Z,1204
2019-01-13T13:05:33.584Z,1428
2019-01-13T13:06:45.773Z,1320
2019-01-13T13:07:58.002Z,1400
2019-01-13T13:09:10.187Z,1108
2019-01-13T13:10:22.381Z,1264
2019-01-13T13:11:34.574Z,1204
2019-01-13T13:13:58.968Z,1248
2019-01-13T13:15:11.242Z,1264
2019-01-13T13:16:23.416Z,1452
2019-01-13T13:17:35.525Z,1704
2019-01-13T13:18:47.809Z,1580
2019-01-13T13:19:59.917Z,1864
2019-01-13T13:21:12.117Z,1400
2019-01-13T13:22:24.310Z,1228
2019-01-13T13:23:36.589Z,1180
2019-01-13T13:26:00.898Z,1304
2019-01-13T13:27:13.123Z,1256
2019-01-13T13:28:25.292Z,1096
2019-01-13T13:29:37.575Z,1164
2019-01-13T13:30:51.628Z,1156
2019-01-13T13:32:01.914Z,1076
2019-01-13T13:33:14.161Z,1176
2019-01-13T13:34:26.280Z,1012
2019-01-13T13:35:38.507Z,1088
2019-01-13T13:36:50.724Z,1076
2019-01-13T13:38:02.884Z,1416
2019-01-13T13:39:15.044Z,1176
2019-01-13T13:40:27.321Z,964
2019-01-13T13:41:39.440Z,796
2019-01-13T13:42:51.635Z,1112
2019-01-13T13:44:03.824Z,680
2019-01-13T13:45:16.021Z,624
2019-01-13T13:46:28.309Z,784
2019-01-13T13:47:40.487Z,772
2019-01-13T13:50:04.884Z,880
2019-01-13T13:51:17.000Z,928
2019-01-13T13:52:29.287Z,1052
2019-01-13T13:53:41.467Z,1052
2019-01-13T13:54:53.592Z,1040
2019-01-13T13:56:05.850Z,1020
2019-01-13T13:57:18.061Z,920
2019-01-13T13:58:30.218Z,892
2019-01-13T13:59:42.360Z,764
2019-01-13T14:02:06.759Z,684
2019-01-13T14:03:19.029Z,728
2019-01-13T14:04:31.173Z,768
2019-01-13T14:05:43.335Z,752
2019-01-13T14:06:55.533Z,856
2019-01-13T14:08:08.012Z,708
2019-01-13T14:09:20.022Z,660
2019-01-13T14:10:32.175Z,956
2019-01-13T14:11:44.322Z,992
2019-01-13T14:14:08.781Z,872
2019-01-13T14:15:20.990Z,828
2019-01-13T14:16:33.182Z,760
2019-01-13T14:17:49.328Z,824
2019-01-13T14:18:58.988Z,696
2019-01-13T14:20:09.683Z,640
2019-01-13T14:21:21.950Z,752
2019-01-13T14:22:34.973Z,620
2019-01-13T14:23:46.431Z,552
2019-01-13T14:26:10.662Z,468
2019-01-13T14:27:22.941Z,384
2019-01-13T14:28:35.049Z,460
2019-01-13T14:29:49.011Z,404
2019-01-13T14:30:59.503Z,396
2019-01-13T14:32:11.671Z,504
2019-01-13T14:33:23.823Z,532
2019-01-13T14:34:36.022Z,532
2019-01-13T14:35:48.215Z,584
2019-01-13T14:37:00.479Z,496
2019-01-13T14:38:12.679Z,624
2019-01-13T14:39:24.881Z,596
2019-01-13T14:40:37.017Z,632
2019-01-13T14:41:49.263Z,516
2019-01-13T14:43:01.391Z,472
2019-01-13T14:44:13.658Z,356
2019-01-13T14:45:25.817Z,384
2019-01-13T14:46:38.048Z,428
2019-01-13T14:47:50.191Z,492
2019-01-13T14:50:14.660Z,508
2019-01-13T14:51:26.825Z,432
2019-01-13T14:52:39.122Z,364
2019-01-13T14:53:51.147Z,300
2019-01-13T14:55:03.413Z,284
2019-01-13T14:56:15.626Z,228
2019-01-13T14:57:27.749Z,252
2019-01-13T14:58:39.931Z,304
2019-01-13T14:59:52.247Z,252
2019-01-13T15:02:16.529Z,276
2019-01-13T15:03:28.790Z,256
2019-01-13T15:04:41.132Z,244
2019-01-13T15:05:53.107Z,248
2019-01-13T15:07:05.347Z,356
2019-01-13T15:08:17.494Z,240
2019-01-13T15:09:29.687Z,252
2019-01-13T15:10:41.882Z,228
2019-01-13T15:11:54.151Z,216
2019-01-13T15:13:06.283Z,216
2019-01-13T15:14:18.563Z,188
2019-01-13T15:15:30.732Z,184
2019-01-13T15:16:42.861Z,196
2019-01-13T15:17:55.119Z,164
2019-01-13T15:19:07.316Z,184
2019-01-13T15:20:19.482Z,196
2019-01-13T15:21:31.709Z,160
2019-01-13T15:22:43.830Z,164
2019-01-13T15:23:56.244Z,96
2019-01-13T15:26:20.509Z,92
2019-01-13T15:27:32.622Z,104
2019-01-13T15:28:44.888Z,76
2019-01-13T15:29:57.080Z,92
2019-01-13T15:31:09.278Z,100
2019-01-13T15:32:21.464Z,92
2019-01-13T15:33:33.718Z,108
2019-01-13T15:34:45.891Z,88
2019-01-13T15:35:57.990Z,84
2019-01-13T15:38:22.375Z,80
2019-01-13T15:39:34.587Z,68
2019-01-13T15:40:46.770Z,68
2019-01-13T15:41:59.064Z,44
2019-01-13T15:43:11.155Z,32
2019-01-13T15:44:23.447Z,32
2019-01-13T15:45:35.558Z,24
2019-01-13T15:46:47.741Z,20
2019-01-13T15:48:00.098Z,20
2019-01-13T15:49:12.206Z,16
2019-01-13T15:50:24.332Z,16
2019-01-13T15:51:36.527Z,16
2019-01-13T15:52:48.829Z,8
2019-01-13T15:54:00.916Z,12
2019-01-13T15:55:13.106Z,12
2019-01-13T15:56:25.301Z,8
2019-01-13T15:57:37.580Z,4
2019-01-13T15:58:49.703Z,8
2019-01-13T16:00:01.888Z,4
2019-01-13T16:02:26.352Z,4
2019-01-13T16:03:38.473Z,0
2019-01-13T16:04:50.728Z,0
2019-01-13T16:06:02.878Z,4
2019-01-13T16:07:15.077Z,4
2019-01-13T16:08:27.490Z,4
2019-01-13T16:09:39.659Z,4
2019-01-13T16:10:55.003Z,0
2019-01-13T16:12:03.844Z,0
2019-01-13T16:13:16.072Z,0
2019-01-13T16:14:28.229Z,0
2019-01-13T16:15:40.469Z,0
2019-01-13T16:16:52.636Z,0
2019-01-13T16:18:04.893Z,0
2019-01-13T16:19:17.098Z,0
2019-01-13T16:20:29.220Z,0
2019-01-13T16:21:41.406Z,0
2019-01-13T16:22:53.599Z,0
2019-01-13T16:24:05.802Z,0
2019-01-13T16:26:30.213Z,0
2019-01-13T16:27:42.837Z,0
2019-01-13T16:28:57.804Z,0
2019-01-13T16:30:06.851Z,0
2019-01-13T16:31:18.970Z,0
2019-01-13T16:32:31.308Z,0
2019-01-13T16:33:43.363Z,0
2019-01-13T16:34:55.636Z,0
2019-01-13T16:36:07.870Z,0
2019-01-13T16:37:19.947Z,0
2019-01-13T16:38:32.228Z,0
2019-01-13T16:39:44.421Z,0
2019-01-13T16:40:56.539Z,0
2019-01-13T16:42:08.720Z,0
2019-01-13T16:43:20.991Z,0
2019-01-13T16:44:33.117Z,0
2019-01-13T16:46:57.607Z,0
2019-01-13T16:48:09.726Z,0
2019-01-13T16:50:34.094Z,0
2019-01-13T16:51:46.384Z,0
2019-01-13T16:52:58.495Z,0
2019-01-13T16:54:10.685Z,0
2019-01-13T16:55:23.072Z,0
2019-01-13T16:56:35.172Z,0
2019-01-13T16:57:47.401Z,0
2019-01-13T16:58:59.477Z,0
2019-01-13T17:00:11.678Z,0
2019-01-13T17:02:36.118Z,0
2019-01-13T17:03:48.317Z,0
2019-01-13T17:05:00.509Z,0
2019-01-13T17:06:12.633Z,0
2019-01-13T17:07:24.916Z,0
2019-01-13T17:08:37.046Z,0
2019-01-13T17:09:49.290Z,0
2019-01-13T17:11:01.512Z,0
2019-01-13T17:12:13.643Z,0
2019-01-13T17:14:38.011Z,0
2019-01-13T17:15:50.195Z,0
2019-01-13T17:17:02.478Z,0
2019-01-13T17:18:14.675Z,0
2019-01-13T17:19:26.794Z,0
2019-01-13T17:20:39.054Z,0
2019-01-13T17:21:51.213Z,0
2019-01-13T17:23:03.440Z,0
2019-01-13T17:24:15.592Z,0
2019-01-13T17:26:39.979Z,0
2019-01-13T17:27:52.160Z,0
2019-01-13T17:29:06.791Z,0
2019-01-13T17:30:16.677Z,0
2019-01-13T17:31:28.743Z,0
2019-01-13T17:32:41.039Z,0
2019-01-13T17:33:53.223Z,0
2019-01-13T17:35:05.406Z,0
2019-01-13T17:36:17.549Z,0
2019-01-13T17:38:41.924Z,0
2019-01-13T17:39:54.203Z,0
2019-01-13T17:41:06.306Z,0
2019-01-13T17:42:18.616Z,0
2019-01-13T17:43:30.730Z,0
2019-01-13T17:44:43.059Z,0
2019-01-13T17:45:55.093Z,0
2019-01-13T17:47:07.377Z,0
2019-01-13T17:48:19.488Z,0
2019-01-13T17:50:43.955Z,0
2019-01-13T17:51:56.069Z,0
2019-01-13T17:53:08.344Z,0
2019-01-13T17:54:20.457Z,0
2019-01-13T17:55:32.690Z,0
2019-01-13T17:56:44.850Z,0
2019-01-13T17:57:57.067Z,0
2019-01-13T17:59:09.241Z,0
2019-01-13T18:00:21.518Z,0
2019-01-13T18:02:45.826Z,0
2019-01-13T18:03:58.018Z,0
2019-01-13T18:05:10.228Z,0
2019-01-13T18:06:22.492Z,0
2019-01-13T18:07:35.934Z,0
2019-01-13T18:08:46.829Z,0
2019-01-13T18:09:59.004Z,0
2019-01-13T18:11:11.275Z,0
2019-01-13T18:12:23.482Z,0
2019-01-13T18:14:47.856Z,0
2019-01-13T18:16:00.182Z,0
2019-01-13T18:17:12.180Z,0
2019-01-13T18:18:24.490Z,0
2019-01-13T18:19:36.638Z,0
2019-01-13T18:20:48.814Z,0
2019-01-13T18:22:01.033Z,0
2019-01-13T18:23:13.167Z,0
2019-01-13T18:24:25.348Z,0
2019-01-13T18:26:49.751Z,0
2019-01-13T18:28:01.942Z,0
2019-01-13T18:29:14.128Z,0
2019-01-13T18:30:26.320Z,0
2019-01-13T18:31:38.515Z,0
2019-01-13T18:32:50.850Z,0
2019-01-13T18:34:04.884Z,0
2019-01-13T18:35:15.110Z,0
2019-01-13T18:36:27.382Z,0
2019-01-13T18:38:51.704Z,0
2019-01-13T18:40:03.904Z,0
2019-01-13T18:41:16.123Z,0
2019-01-13T18:42:28.284Z,0